Steelton, PA (17113)

8:32 PM EDT on August 21, 2014 (GMT -0400)
Lenker Manor | Change Station
CLOSE
Current Station
Personal Weather Station
Location: Harrisburg, PA
Elevation: 435 ft
Nearby Weather Stations

Elev 435 ft 40.26 °N, 76.83 °W | Updated 2 minutes ago

Mostly Cloudy
Mostly Cloudy
70.0 °F
Feels Like 70.0 °F
N
1.6
Wind Variable Wind from North
Gusts 2.2 mph

Today
High -- | Low -- °F
--% Chance of Precip.
Yesterday
High -- | Low -- °F
Precip. -- in
6:24 AM 7:55 PM
Waning Crescent, 11% visible
Pressure 29.99 in
Visibility 10.0 miles
Clouds Few 8000 ft
Mostly Cloudy 12000 ft
Dew Point 69 °F
Humidity 98%
Rainfall 0.02 in
Snow Depth Not available.
UV 0 out of 12
Pollen 8.60 out of 12
Ozone Good
PM2.5 Moderate
Flu Activity Not available.
METAR KCXY 212356Z 00000KT 10SM FEW080 BKN120 21/19 A2999 RMK AO2 LTG DSNT S SLP154 60041 T02110194 10294 20211 56005

More Conditions Fewer Conditions

Pressure 29.99 in
Visibility 10.0 miles
Clouds Few 8000 ft
Mostly Cloudy 12000 ft
Dew Point 69 °F
Humidity 98%
Rainfall 0.02 in
Snow Depth Not available.
UV 0 out of 12
Pollen 8.60 out of 12
Ozone Good
PM2.5 Moderate
Flu Activity Not available.
METAR KCXY 212356Z 00000KT 10SM FEW080 BKN120 21/19 A2999 RMK AO2 LTG DSNT S SLP154 60041 T02110194 10294 20211 56005

More Conditions Fewer Conditions

10-Day Weather Forecast

Almanac

Astronomy

Aug. 21, 2014 Rise Set
Actual Time 6:24 AM EDT 7:55 PM EDT
Civil Twilight 5:55 AM EDT 8:24 PM EDT
Nautical Twilight 5:21 AM EDT 8:58 PM EDT
Astronomical Twilight 4:44 AM EDT 9:35 PM EDT
Moon 2:52 AM EDT (8/21) 5:23 PM EDT (8/21)
Length of Visible Light 14h 28m
Length of Day
13h 31m
Tomorrow will be 2m 26s shorter.
Waning Crescent, 11% of the Moon is Illuminated
Today
Waning Crescent
Aug 25
New
Sep 2
First Quarter
Sep 8
Full
Sep 15
Last Quarter

Today's Extremes

State Highs State Lows

Community

WunderPhotos

Upload Photos

1,746,073 photos uploaded!

Nearby

Air Quality

  Air Quality AQ Index Pollutant
Yesterday Moderate
PM2.5
Yesterday Good
OZONE
Current Moderate
PM2.5
Current Good
OZONE
Thursday Moderate
OZONE
Thursday Moderate
PM2.5
Friday Moderate
PM2.5
Friday Moderate
OZONE
Saturday Good
PM2.5
Saturday Good
OZONE

Snow Depth

Station Depth Elevation
No new snow has been reported.

Earthquake Activity

City Distance Mag. Time & Date
No recent earthquake activity has been reported nearby.
Minimum magnitude displayed is 2.5.

Coastal Water Temperatures

Place Temperature
No Stations Reporting

Nearby Weather Stations